Poltava, Ukraine
Current Conditions -  °F | °C
As of 6:00 PM on Sunday 21 Dec 2014 (Local Time) from UKHH Reporting Station
Haze Haze  
Wind Chill: 28°   Ceiling: 2300
Heat Index: 34°   Visibility: 2.2mi
Dew Point: 32°   Wind: 7mph
Humidity: 93%   Direction: 240°WSW
Pressure: 29.8"   Gusts: NA
Location:  49.58°N, 34.57°E
Report Text: UKHH 211500Z 24003MPS 210V270 3600 BR SCT006 OVC023 01/00 Q1009 25290063 TEMPO -SHSNRA BKN004 BKN015CB
Loading
Personal Weather Stations






























Interactive Weather Map New forecast layout! Learn more

10-Day Weather Forecast

Advertisements
Track Severe Weather on mobile